Site contains unofficial IBTrACS data. Visit the IBTrACS Website to access archived data.

1925 NOT_NAMED (1925021S16121)


IBTrACS version v04r00. Visit IBTrACS website for data access.
Please direct all questions to the IBTrACS Q and A forum

Storm track - Intensity - Wind Radii - Intensity Data - Source Data - All data

Summary Information

Storm ID 1925021S16121
Start Jan 20 23Z
Landfall Jan 23 15Z
End Jan 25 23Z
ATCF IDs
Track status Best track data.

Storm track plot

Map of storm track

Intensity plots

No Intensity information for this storm


Radial wind information

No radial wind information for this storm


Position and Intensity Table

BASIN ISO_TIME_________ NATURE LAT LON
degrees north degrees east
SI 1925-01-20 23:00:00 NR -16.20 120.60
SI 1925-01-21 00:00:00 NR -16.26 120.61
SI 03:00:00 NR -16.42 120.65
SI 06:00:00 NR -16.58 120.68
SI 09:00:00 NR -16.72 120.70
SI 11:00:00 NR -16.80 120.70
SI 12:00:00 NR -16.84 120.70
SI 15:00:00 NR -16.93 120.68
SI 18:00:00 NR -17.01 120.63
SI 21:00:00 NR -17.12 120.56
SI 23:00:00 NR -17.20 120.50
SI 1925-01-22 00:00:00 NR -17.25 120.47
SI 03:00:00 NR -17.44 120.35
SI 06:00:00 NR -17.65 120.20
SI 09:00:00 NR -17.86 120.03
SI 11:00:00 NR -18.00 119.90
SI 12:00:00 NR -18.05 119.85
SI 15:00:00 NR -18.19 119.68
SI 18:00:00 NR -18.34 119.47
SI 21:00:00 NR -18.53 119.21
SI 23:00:00 NR -18.70 119.00
SI 1925-01-23 00:00:00 NR -18.79 118.87
SI 03:00:00 NR -19.11 118.42
SI 06:00:00 NR -19.50 117.92
SI 09:00:00 NR -19.95 117.41
SI 11:00:00 NR -20.30 117.10
SI 12:00:00 NR -20.50 116.95
SI 15:00:00 NR -21.16 116.54
SI 18:00:00 NR -21.86 116.17
SI 21:00:00 NR -22.52 115.86
SI 23:00:00 NR -22.90 115.70
SI 1925-01-24 00:00:00 NR -23.04 115.63
SI 03:00:00 NR -23.39 115.47
SI 06:00:00 NR -23.67 115.38
SI 09:00:00 NR -23.92 115.33
SI 11:00:00 NR -24.10 115.30
SI 12:00:00 NR -24.21 115.27
SI 15:00:00 NR -24.57 115.20
SI 18:00:00 NR -24.94 115.14
SI 21:00:00 NR -25.33 115.11
SI 23:00:00 NR -25.60 115.10
SI 1925-01-25 00:00:00 NR -25.73 115.10
SI 03:00:00 NR -26.15 115.12
SI 06:00:00 NR -26.57 115.17
SI 09:00:00 NR -27.01 115.24
SI 11:00:00 NR -27.30 115.30
SI 12:00:00 NR -27.45 115.33
SI 15:00:00 NR -27.90 115.45
SI 18:00:00 NR -28.35 115.57
SI 21:00:00 NR -28.80 115.71
SI 23:00:00 NR -29.10 115.80

Source Information

Agency Information
USA
TOKYO
CMA
HKO
NEWDELHI
REUNION
BOM
NADI
WELLINGTON
DS824
TD9636 cons_worldwide_trop_cyclone_18710101-19891231-006:Line=1527
TD9635
NEUMANN
MLC

All available IBTrACS Data

SEASON BASIN SUBBASIN ISO_TIME_________ NATURE LAT LON DIST2LAND LANDFALL IFLAG USA SSHS TD9636 LAT TD9636 LON TD9636 STAGE STORM SPEED STORM DIR
Year degrees north degrees east km km 1 degrees north degrees east kts degrees
1925 SI WA 1925-01-20 23:00:00 NR -16.20 120.60 207 207 __________O___ -1 -16.20 120.60 7 3 0
1925 SI WA 1925-01-21 00:00:00 NR -16.26 120.61 202 197 __________P___ -1 -16.26 120.61 7 3 170
1925 SI WA 03:00:00 NR -16.42 120.65 197 177 __________P___ -1 -16.42 120.65 7 3 168
1925 SI WA 06:00:00 NR -16.58 120.68 177 173 __________P___ -1 -16.58 120.68 7 3 173
1925 SI WA 09:00:00 NR -16.72 120.70 173 169 __________P___ -1 -16.72 120.70 7 3 174
1925 SI WA 11:00:00 NR -16.80 120.70 169 169 __________O___ -1 -16.80 120.70 7 2 0
1925 SI WA 12:00:00 NR -16.84 120.70 169 165 __________P___ -1 -16.84 120.70 7 2 0
1925 SI WA 15:00:00 NR -16.93 120.68 165 162 __________P___ -1 -16.93 120.68 7 2 199
1925 SI WA 18:00:00 NR -17.01 120.63 172 168 __________P___ -1 -17.01 120.63 7 2 211
1925 SI WA 21:00:00 NR -17.12 120.56 168 168 __________P___ -1 -17.12 120.56 7 3 215
1925 SI WA 23:00:00 NR -17.20 120.50 175 175 __________O___ -1 -17.20 120.50 7 3 212
1925 SI WA 1925-01-22 00:00:00 NR -17.25 120.47 173 173 __________P___ -1 -17.25 120.47 7 4 211
1925 SI WA 03:00:00 NR -17.44 120.35 192 185 __________P___ -1 -17.44 120.35 7 5 213
1925 SI WA 06:00:00 NR -17.65 120.20 194 187 __________P___ -1 -17.65 120.20 7 5 216
1925 SI WA 09:00:00 NR -17.86 120.03 195 195 __________P___ -1 -17.86 120.03 7 5 219
1925 SI WA 11:00:00 NR -18.00 119.90 201 201 __________O___ -1 -18.00 119.90 7 5 223
1925 SI WA 12:00:00 NR -18.05 119.85 202 197 __________P___ -1 -18.05 119.85 7 4 228
1925 SI WA 15:00:00 NR -18.19 119.68 197 189 __________P___ -1 -18.19 119.68 7 5 231
1925 SI WA 18:00:00 NR -18.34 119.47 192 175 __________P___ -1 -18.34 119.47 7 6 232
1925 SI WA 21:00:00 NR -18.53 119.21 178 156 __________P___ -1 -18.53 119.21 7 7 231
1925 SI WA 23:00:00 NR -18.70 119.00 156 146 __________O___ -1 -18.70 119.00 7 8 232
1925 SI WA 1925-01-23 00:00:00 NR -18.79 118.87 146 128 __________P___ -1 -18.79 118.87 7 10 233
1925 SI WA 03:00:00 NR -19.11 118.42 133 102 __________P___ -1 -19.11 118.42 7 11 232
1925 SI WA 06:00:00 NR -19.50 117.92 102 79 __________P___ -1 -19.50 117.92 7 13 228
1925 SI WA 09:00:00 NR -19.95 117.41 76 44 __________P___ -1 -19.95 117.41 7 13 224
1925 SI WA 11:00:00 NR -20.30 117.10 44 22 __________O___ -1 -20.30 117.10 7 14 218
1925 SI WA 12:00:00 NR -20.50 116.95 22 0 __________P___ -1 -20.50 116.95 7 15 211
1925 SI WA 15:00:00 NR -21.16 116.54 0 0 __________P___ -1 -21.16 116.54 7 16 208
1925 SI WA 18:00:00 NR -21.86 116.17 0 0 __________P___ -1 -21.86 116.17 7 15 205
1925 SI WA 21:00:00 NR -22.52 115.86 0 0 __________P___ -1 -22.52 115.86 7 14 203
1925 SI WA 23:00:00 NR -22.90 115.70 0 0 __________O___ -1 -22.90 115.70 7 11 202
1925 SI WA 1925-01-24 00:00:00 NR -23.04 115.63 0 0 __________P___ -1 -23.04 115.63 7 8 203
1925 SI WA 03:00:00 NR -23.39 115.47 0 0 __________P___ -1 -23.39 115.47 7 7 200
1925 SI WA 06:00:00 NR -23.67 115.38 0 0 __________P___ -1 -23.67 115.38 7 5 195
1925 SI WA 09:00:00 NR -23.92 115.33 0 0 __________P___ -1 -23.92 115.33 7 5 190
1925 SI WA 11:00:00 NR -24.10 115.30 0 0 __________O___ -1 -24.10 115.30 7 6 191
1925 SI WA 12:00:00 NR -24.21 115.27 0 0 __________P___ -1 -24.21 115.27 7 7 191
1925 SI WA 15:00:00 NR -24.57 115.20 0 0 __________P___ -1 -24.57 115.20 7 7 189
1925 SI WA 18:00:00 NR -24.94 115.14 0 0 __________P___ -1 -24.94 115.14 7 8 186
1925 SI WA 21:00:00 NR -25.33 115.11 0 0 __________P___ -1 -25.33 115.11 7 8 184
1925 SI WA 23:00:00 NR -25.60 115.10 0 0 __________O___ -1 -25.60 115.10 7 8 183
1925 SI WA 1925-01-25 00:00:00 NR -25.73 115.10 0 0 __________P___ -1 -25.73 115.10 7 8 0
1925 SI WA 03:00:00 NR -26.15 115.12 0 0 __________P___ -1 -26.15 115.12 7 8 176
1925 SI WA 06:00:00 NR -26.57 115.17 0 0 __________P___ -1 -26.57 115.17 7 9 173
1925 SI WA 09:00:00 NR -27.01 115.24 0 0 __________P___ -1 -27.01 115.24 7 9 171
1925 SI WA 11:00:00 NR -27.30 115.30 0 0 __________O___ -1 -27.30 115.30 7 9 169
1925 SI WA 12:00:00 NR -27.45 115.33 0 0 __________P___ -1 -27.45 115.33 7 9 168
1925 SI WA 15:00:00 NR -27.90 115.45 0 0 __________P___ -1 -27.90 115.45 7 9 167
1925 SI WA 18:00:00 NR -28.35 115.57 0 0 __________P___ -1 -28.35 115.57 7 9 166
1925 SI WA 21:00:00 NR -28.80 115.71 0 0 __________P___ -1 -28.80 115.71 7 9 165
1925 SI WA 23:00:00 NR -29.10 115.80 0 __________O___ -1 -29.10 115.80 7 9 166